Latest Coastal Weather Observations for Mandurah

IDW60701

Issued at 4:03 am WST Saturday 1 October 2016 (issued every 10 minutes, with the page automatically refreshed every 10 minutes)

About coastal observations | Map of coastal stations | Coastal observations for WA | Marine services | Other Formats
Station Details ID: 009977 Name: MANDURAH Lat: -32.52 Lon: 115.71 Height: 3.0 m
Data from the previous 72 hours. | See also: Recent months at Mandurah
Date/Time
WST
Temp
°C
Wind Pressure Rain since
9am
mm
Weather Cloud Vis
km
Sea
Height
m
Swell
Dir  Spd
kts
Gust
kts
hPa Trend Height
m
Period
s
Dir
01/04:00am 16.0 WNW 23 32 1001.1 - 2.0 - - - - - - -
01/03:30am 16.0 NW 21 25 1001.0 - 2.0 - - - - - - -
01/03:00am 15.7 WNW 20 25 1001.8 - 2.0 - - - - - - -
01/02:30am 15.5 WNW 19 25 1002.4 - 2.0 - - - - - - -
01/02:00am 15.6 WNW 18 24 1003.0 - 2.0 - - - - - - -
01/01:30am 15.5 WNW 17 21 1003.4 - 1.8 - - - - - - -
01/01:00am 15.5 WNW 11 16 1003.5 - 1.8 - - - - - - -
01/12:30am 15.3 W 13 16 1003.9 - 1.8 - - - - - - -
01/12:00am 15.4 W 13 17 1004.3 - 1.8 - - - - - - -
 
Date/Time
WST
Temp
°C
Wind Pressure Rain since
9am
mm
Weather Cloud Vis
km
Sea
Height
m
Swell
Dir  Spd
kts
Gust
kts
hPa Trend Height
m
Period
s
Dir
30/11:30pm 15.3 W 15 19 1004.4 - 1.8 - - - - - - -
30/11:00pm 15.0 W 9 15 1004.9 - 1.8 - - - - - - -
30/10:30pm 15.2 W 10 14 1005.2 - 1.8 - - - - - - -
30/10:00pm 15.3 W 11 15 1005.5 - 1.8 - - - - - - -
30/09:30pm 15.2 W 10 17 1006.3 - 1.8 - - - - - - -
30/09:00pm 15.0 W 10 17 1006.3 - 1.8 - - - - - - -
30/08:30pm 15.1 W 10 15 1006.3 - 1.8 - - - - - - -
30/08:00pm 15.0 WSW 10 14 1006.4 - 1.8 - - - - - - -
30/07:30pm 15.0 WSW 10 15 1006.5 - 1.8 - - - - - - -
30/07:00pm 15.0 WSW 9 14 1006.3 - 1.8 - - - - - - -
30/06:30pm 14.9 WSW 8 12 1006.1 - 1.8 - - - - - - -
30/06:00pm 15.5 WSW 12 17 1006.1 - 1.8 - - - - - - -
30/05:30pm 15.6 W 13 19 1006.1 - 1.8 - - - - - - -
30/05:00pm 14.5 W 14 22 1006.4 - 1.8 - - - - - - -
30/04:30pm 16.5 W 14 19 1006.0 - 1.8 - - - - - - -
30/04:00pm 15.9 WNW 17 24 1006.3 - 1.8 - - - - - - -
30/03:47pm 16.0 W 15 24 1006.3 - 1.8 - - - - - - -
30/03:30pm 16.3 W 9 12 1006.3 - 1.8 - - - - - - -
30/03:00pm 16.4 WSW 10 15 1006.7 - 1.4 - - - - - - -
30/02:30pm 16.4 WSW 11 16 1006.6 - 1.4 - - - - - - -
30/02:00pm 15.8 W 15 23 1006.7 - 1.4 - - - - - - -
30/01:30pm 17.1 W 12 18 1006.7 - 1.2 - - - - - - -
30/01:00pm 17.9 W 14 19 1006.9 - 1.2 - - - - - - -
30/12:30pm 17.6 W 14 20 1007.0 - 1.2 - - - - - - -
30/12:00pm 17.5 W 14 20 1007.2 - 1.2 - - - - - - -
30/11:30am 15.9 W 12 18 1007.3 - 1.2 - - - - - - -
30/11:00am 14.1 W 15 20 1007.5 - 1.2 - - - - - - -
30/10:46am 14.5 WNW 15 27 1007.6 - 1.0 - - - - - - -
30/10:30am 14.5 WNW 20 25 1007.9 - 0.6 - - - - - - -
30/10:00am 15.0 WNW 19 25 1007.7 - 0.0 - - - - - - -
30/09:30am 16.5 NW 18 22 1007.4 - 0.0 - - - - - - -
30/09:00am 16.4 NW 18 21 1007.5 - 0.0 - - - - - - -
30/08:30am 16.1 NW 16 20 1007.5 - 0.0 - - - - - - -
30/08:00am 15.4 NW 16 19 1007.6 - 0.0 - - - - - - -
30/07:30am 15.2 NW 17 21 1007.9 - 0.0 - - - - - - -
30/07:00am 15.1 NW 14 18 1008.0 - 0.0 - - - - - - -
30/06:30am 14.8 NW 15 18 1007.9 - 0.0 - - - - - - -
30/06:00am 14.3 NW 11 13 1007.8 - 0.0 - - - - - - -
30/05:30am 14.4 WNW 16 21 1008.1 - 0.0 - - - - - - -
30/05:00am 14.8 WNW 12 17 1008.1 - 0.0 - - - - - - -
30/04:30am 14.6 W 10 13 1008.8 - 0.0 - - - - - - -
30/04:00am 14.5 W 10 15 1009.2 - 0.0 - - - - - - -
30/03:30am 14.2 W 11 14 1009.5 - 0.0 - - - - - - -
30/03:00am 13.9 W 11 14 1010.0 - 0.0 - - - - - - -
30/02:30am 14.2 WNW 8 11 1010.1 - 0.0 - - - - - - -
30/02:00am 11.5 E 2 4 1010.5 - 0.0 - - - - - - -
30/01:30am 11.5 E 1 2 1010.8 - 0.0 - - - - - - -
30/01:00am 11.4 E 1 3 1010.9 - 0.0 - - - - - - -
30/12:30am 10.9 CALM 0 0 1011.4 - 0.0 - - - - - - -
30/12:00am 11.1 CALM 0 0 1012.0 - 0.0 - - - - - - -
 
Date/Time
WST
Temp
°C
Wind Pressure Rain since
9am
mm
Weather Cloud Vis
km
Sea
Height
m
Swell
Dir  Spd
kts
Gust
kts
hPa Trend Height
m
Period
s
Dir
29/11:30pm 11.0 CALM 0 0 1012.3 - 0.0 - - - - - - -
29/11:00pm 10.7 CALM 0 0 1012.7 - 0.0 - - - - - - -
29/10:30pm 11.2 E 1 2 1013.1 - 0.0 - - - - - - -
29/10:00pm 11.5 E 2 4 1013.6 - 0.0 - - - - - - -
29/09:30pm 12.4 SE 2 3 1014.0 - 0.0 - - - - - - -
29/09:00pm 13.2 SSW 2 3 1014.5 - 0.0 - - - - - - -
29/08:30pm 13.1 SW 1 2 1014.8 - 0.0 - - - - - - -
29/08:00pm 12.9 WSW 5 8 1015.0 - 0.0 - - - - - - -
29/07:30pm 13.1 WSW 4 6 1015.0 - 0.0 - - - - - - -
29/07:00pm 13.3 WSW 4 8 1014.8 - 0.0 - - - - - - -
29/06:30pm 13.7 WSW 5 7 1014.8 - 0.0 - - - - - - -
29/06:00pm 14.4 WSW 7 11 1015.0 - 0.0 - - - - - - -
29/05:30pm 15.3 WSW 7 9 1015.0 - 0.0 - - - - - - -
29/05:00pm 15.8 W 8 10 1015.0 - 0.0 - - - - - - -
29/04:30pm 16.2 W 8 11 1015.1 - 0.0 - - - - - - -
29/04:00pm 16.2 W 9 11 1015.3 - 0.0 - - - - - - -
29/03:30pm 15.8 WNW 7 9 1015.5 - 0.0 - - - - - - -
29/03:00pm 15.8 WNW 7 9 1016.2 - 0.0 - - - - - - -
29/02:30pm 15.9 WNW 7 9 1016.9 - 0.0 - - - - - - -
29/02:00pm 16.2 WNW 7 9 1017.7 - 0.0 - - - - - - -
29/01:30pm 16.0 WNW 8 11 1018.1 - 0.0 - - - - - - -
29/01:00pm 15.6 WNW 7 9 1018.5 - 0.0 - - - - - - -
29/12:30pm 15.7 WNW 7 9 1019.1 - 0.0 - - - - - - -
29/12:00pm 15.7 WNW 6 7 1019.6 - 0.0 - - - - - - -
29/11:30am 16.4 N 5 7 1020.0 - 0.0 - - - - - - -
29/11:00am 15.6 N 5 6 1020.7 - 0.0 - - - - - - -
29/10:30am 15.1 N 5 7 1021.2 - 0.0 - - - - - - -
29/10:00am 14.2 N 6 7 1021.8 - 0.0 - - - - - - -
29/09:30am 13.7 NNE 7 9 1021.8 - 0.0 - - - - - - -
29/09:00am 13.0 NE 8 12 1021.8 - 0.0 - - - - - - -
29/08:30am 11.3 NE 10 13 1021.7 - 0.0 - - - - - - -
29/08:00am 9.8 ENE 7 12 1021.7 - 0.0 - - - - - - -
29/07:30am 8.0 ENE 5 7 1021.9 - 0.0 - - - - - - -
29/07:00am 7.1 ENE 3 5 1022.1 - 0.0 - - - - - - -
29/06:30am 6.7 NE 3 5 1022.1 - 0.0 - - - - - - -
29/06:00am 6.5 ENE 3 6 1021.9 - 0.0 - - - - - - -
29/05:30am 6.3 E 3 5 1021.9 - 0.0 - - - - - - -
29/05:00am 6.5 E 3 4 1021.8 - 0.0 - - - - - - -
29/04:30am 6.9 E 2 4 1022.0 - 0.0 - - - - - - -
29/04:00am 7.4 E 4 7 1021.7 - 0.0 - - - - - - -
29/03:30am 7.7 E 7 12 1021.6 - 0.0 - - - - - - -
29/03:00am 7.7 E 7 12 1021.6 - 0.0 - - - - - - -
29/02:30am 7.7 E 6 10 1021.6 - 0.0 - - - - - - -
29/02:00am 8.2 E 6 9 1021.8 - 0.0 - - - - - - -
29/01:30am 8.2 ESE 3 5 1022.3 - 0.0 - - - - - - -
29/01:00am 8.8 ESE 6 8 1022.8 - 0.0 - - - - - - -
29/12:30am 9.1 SE 5 6 1023.0 - 0.0 - - - - - - -
29/12:00am 9.8 SE 5 7 1023.2 - 0.0 - - - - - - -
 
Date/Time
WST
Temp
°C
Wind Pressure Rain since
9am
mm
Weather Cloud Vis
km
Sea
Height
m
Swell
Dir  Spd
kts
Gust
kts
hPa Trend Height
m
Period
s
Dir
28/11:30pm 10.0 SE 6 7 1023.1 - 0.0 - - - - - - -
28/11:00pm 10.0 SE 4 5 1022.9 - 0.0 - - - - - - -
28/10:30pm 10.6 SE 3 4 1023.2 - 0.0 - - - - - - -
28/10:00pm 11.2 SSE 4 7 1023.2 - 0.0 - - - - - - -
28/09:30pm 12.2 SSE 4 8 1023.3 - 0.0 - - - - - - -
28/09:00pm 12.3 S 4 6 1023.3 - 0.0 - - - - - - -
28/08:30pm 12.5 S 4 7 1023.3 - 0.0 - - - - - - -
28/08:00pm 12.3 SSW 4 7 1023.4 - 0.0 - - - - - - -
28/07:30pm 12.4 SSW 4 7 1023.4 - 0.0 - - - - - - -
28/07:00pm 12.6 SSW 5 7 1023.2 - 0.0 - - - - - - -
28/06:30pm 12.9 SSW 5 8 1023.1 - 0.0 - - - - - - -
28/06:00pm 13.7 SSW 6 9 1022.9 - 0.0 - - - - - - -
28/05:30pm 14.2 SSW 8 11 1022.7 - 0.0 - - - - - - -
28/05:00pm 14.8 SSW 7 12 1022.6 - 0.0 - - - - - - -
28/04:30pm 14.9 S 6 11 1022.5 - 0.0 - - - - - - -
28/04:00pm 15.2 SSW 7 12 1022.5 - 0.0 - - - - - - -
28/03:30pm 15.5 SSW 9 13 1022.6 - 0.0 - - - - - - -
28/03:00pm 15.8 SSW 7 13 1022.7 - 0.0 - - - - - - -
28/02:30pm 15.7 S 7 12 1022.8 - 0.0 - - - - - - -
28/02:00pm 15.0 S 8 13 1022.9 - 0.0 - - - - - - -
28/01:30pm 15.4 S 5 8 1023.0 - 0.0 - - - - - - -
28/01:00pm 14.6 S 6 10 1023.3 - 0.0 - - - - - - -
28/12:30pm 14.2 SSE 6 10 1023.6 - 0.0 - - - - - - -
28/12:00pm 13.8 SSE 7 11 1023.8 - 0.0 - - - - - - -
28/11:30am 14.0 SSE 6 11 1023.9 - 0.0 - - - - - - -
28/11:00am 13.5 SSE 7 13 1024.0 - 0.0 - - - - - - -
28/10:30am 12.6 SSE 9 13 1024.0 - 0.0 - - - - - - -
28/10:00am 12.2 S 9 14 1024.1 - 0.0 - - - - - - -
28/09:30am 12.2 S 7 13 1024.1 - 0.0 - - - - - - -
28/09:00am 11.3 SSE 6 11 1023.8 - 5.6 - - - - - - -
28/08:30am 10.2 SSE 7 9 1023.7 - 5.6 - - - - - - -
28/08:00am 9.7 SE 6 9 1023.3 - 5.6 - - - - - - -
28/07:30am 9.1 SSE 5 7 1022.7 - 5.6 - - - - - - -
28/07:00am 8.9 SSE 6 9 1022.0 - 5.6 - - - - - - -
28/06:30am 8.3 SSE 6 10 1021.7 - 5.6 - - - - - - -
28/06:00am 8.3 SSE 8 13 1021.0 - 5.6 - - - - - - -
28/05:30am 8.3 SE 7 12 1020.5 - 5.6 - - - - - - -
28/05:00am 8.3 SSE 6 9 1020.0 - 5.6 - - - - - - -
28/04:30am 8.7 SSE 5 9 1019.6 - 5.6 - - - - - - -

Other Formats:

Comma delimited format used in spreadsheet applications
http://www.bom.gov.au/fwo/IDW60701/IDW60701.94605.axf

JavaScript Object Notation format (JSON) in row-major order
http://www.bom.gov.au/fwo/IDW60701/IDW60701.94605.json